createdAt,value
2022-08-09T00:00:28.860Z,97346.31
2022-08-09T00:02:55.460Z,97336.75
2022-08-09T00:06:16.058Z,97342.75
2022-08-09T00:08:31.361Z,97343.38
2022-08-09T00:10:59.980Z,97337.13
2022-08-09T00:13:27.192Z,97345.22
2022-08-09T00:15:59.785Z,97343.56
2022-08-09T00:18:36.114Z,97348.56
2022-08-09T00:21:05.227Z,97344.00
2022-08-09T00:23:57.724Z,97351.91
2022-08-09T00:26:32.830Z,97345.59
2022-08-09T00:29:01.997Z,97350.38
2022-08-09T00:31:58.249Z,97341.75
2022-08-09T00:34:19.189Z,97338.22
2022-08-09T00:36:47.692Z,97341.38
2022-08-09T00:40:09.206Z,97343.41
2022-08-09T00:44:16.958Z,97345.50
2022-08-09T00:44:50.430Z,97348.75
2022-08-09T00:47:20.065Z,97338.81
2022-08-09T00:49:54.552Z,97338.41
2022-08-09T00:52:30.098Z,97346.19
2022-08-09T00:55:01.870Z,97345.44
2022-08-09T00:57:35.733Z,97354.13
2022-08-09T01:00:21.986Z,97349.59
2022-08-09T01:02:57.411Z,97354.78
2022-08-09T01:05:53.172Z,97355.84
2022-08-09T01:08:27.144Z,97359.19
2022-08-09T01:11:14.957Z,97354.94
2022-08-09T01:14:11.782Z,97335.38
2022-08-09T01:16:47.291Z,97359.47
2022-08-09T01:20:02.742Z,97353.25
2022-08-09T01:22:51.362Z,97371.38
2022-08-09T01:25:48.854Z,97361.75
2022-08-09T01:28:19.156Z,97356.56
2022-08-09T01:30:51.831Z,97355.19
2022-08-09T01:33:23.959Z,97357.81
2022-08-09T01:36:03.042Z,97346.63
2022-08-09T01:38:34.636Z,97363.28
2022-08-09T01:41:33.734Z,97356.38
2022-08-09T01:44:06.265Z,97370.84
2022-08-09T01:46:38.089Z,97370.09
2022-08-09T01:49:19.016Z,97363.06
2022-08-09T01:51:58.070Z,97363.06
2022-08-09T01:54:39.882Z,97368.88
2022-08-09T01:57:14.835Z,97358.66
2022-08-09T01:59:51.901Z,97365.66
2022-08-09T02:02:31.117Z,97358.03
2022-08-09T02:05:05.443Z,97371.34
2022-08-09T02:08:41.353Z,97359.53
2022-08-09T02:10:56.835Z,97359.53
2022-08-09T02:13:26.113Z,97366.38
2022-08-09T02:16:03.965Z,97372.19
2022-08-09T02:18:38.086Z,97365.69
2022-08-09T02:21:21.790Z,97365.25
2022-08-09T02:23:54.464Z,97374.50
2022-08-09T02:26:30.534Z,97369.00
2022-08-09T02:29:08.952Z,97369.75
2022-08-09T02:31:40.897Z,97367.97
2022-08-09T02:34:41.792Z,97367.41
2022-08-09T02:37:17.029Z,97371.72
2022-08-09T02:39:55.023Z,97372.41
2022-08-09T02:42:33.571Z,97378.00
2022-08-09T02:45:26.700Z,97373.50
2022-08-09T02:47:59.702Z,97380.50
2022-08-09T02:50:31.105Z,97370.69
2022-08-09T02:53:02.754Z,97374.16
2022-08-09T02:55:57.267Z,97371.50
2022-08-09T02:58:32.946Z,97370.00
2022-08-09T03:01:08.254Z,97374.66
2022-08-09T03:04:17.159Z,97371.53
2022-08-09T03:06:34.315Z,97373.69
2022-08-09T03:09:06.274Z,97371.41
2022-08-09T03:12:09.811Z,97363.00
2022-08-09T03:14:32.674Z,97363.72
2022-08-09T03:17:05.611Z,97361.44
2022-08-09T03:19:57.744Z,97358.38
2022-08-09T03:22:29.996Z,97367.13
2022-08-09T03:25:16.177Z,97365.50
2022-08-09T03:27:51.035Z,97354.38
2022-08-09T03:30:29.946Z,97359.50
2022-08-09T03:33:05.817Z,97358.69
2022-08-09T03:36:13.980Z,97358.25
2022-08-09T03:38:31.646Z,97369.97
2022-08-09T03:41:03.150Z,97374.16
2022-08-09T03:43:32.213Z,97374.84
2022-08-09T03:46:04.983Z,97387.47
2022-08-09T03:48:55.386Z,97388.31
2022-08-09T03:51:55.418Z,97387.47
2022-08-09T03:54:14.684Z,97382.44
2022-08-09T03:56:44.863Z,97392.69
2022-08-09T03:59:20.779Z,97390.72
2022-08-09T04:01:49.760Z,97386.44
2022-08-09T04:04:19.597Z,97389.50
2022-08-09T04:06:50.050Z,97390.06
2022-08-09T04:09:41.633Z,97375.03
2022-08-09T04:12:11.854Z,97385.56
2022-08-09T04:15:01.403Z,97384.72
2022-08-09T04:17:30.414Z,97380.00
2022-08-09T04:19:58.858Z,97390.25
2022-08-09T04:22:29.608Z,97397.84
2022-08-09T04:25:01.407Z,97396.56
2022-08-09T04:27:29.962Z,97399.31
2022-08-09T04:30:02.132Z,97410.78
2022-08-09T04:32:31.439Z,97402.66
2022-08-09T04:35:08.502Z,97403.25
2022-08-09T04:37:45.993Z,97409.59
2022-08-09T04:40:28.491Z,97414.19
2022-08-09T04:43:02.496Z,97407.78
2022-08-09T04:45:36.129Z,97409.88
2022-08-09T04:48:23.854Z,97415.59
2022-08-09T04:50:59.901Z,97405.09
2022-08-09T04:53:31.338Z,97413.84
2022-08-09T04:56:00.900Z,97416.09
2022-08-09T04:58:29.764Z,97417.59
2022-08-09T05:00:58.755Z,97415.03
2022-08-09T05:03:43.366Z,97417.72
2022-08-09T05:06:27.277Z,97417.09
2022-08-09T05:08:59.991Z,97418.41
2022-08-09T05:11:35.429Z,97423.06
2022-08-09T05:14:06.700Z,97424.66
2022-08-09T05:16:43.460Z,97426.00
2022-08-09T05:19:25.537Z,97420.50
2022-08-09T05:21:55.559Z,97420.38
2022-08-09T05:24:25.131Z,97410.16
2022-08-09T05:26:52.750Z,97423.84
2022-08-09T05:29:21.608Z,97416.75
2022-08-09T05:31:57.435Z,97420.66
2022-08-09T05:34:31.443Z,97427.50
2022-08-09T05:37:06.489Z,97432.19
2022-08-09T05:39:43.678Z,97428.97
2022-08-09T05:42:17.918Z,97431.72
2022-08-09T05:44:51.968Z,97430.97
2022-08-09T05:47:23.695Z,97443.66
2022-08-09T05:50:23.580Z,97442.47
2022-08-09T05:52:39.361Z,97450.03
2022-08-09T05:55:10.932Z,97449.81
2022-08-09T05:57:55.441Z,97441.13
2022-08-09T06:00:33.568Z,97446.56
2022-08-09T06:03:02.138Z,97445.88
2022-08-09T06:05:54.834Z,97457.94
2022-08-09T06:08:19.855Z,97445.44
2022-08-09T06:10:55.595Z,97445.59
2022-08-09T06:13:23.622Z,97446.50
2022-08-09T06:15:52.307Z,97449.94
2022-08-09T06:18:23.921Z,97454.63
2022-08-09T06:20:57.167Z,97448.28
2022-08-09T06:23:55.033Z,97455.31
2022-08-09T06:26:21.356Z,97466.56
2022-08-09T06:28:59.348Z,97462.50
2022-08-09T06:31:31.235Z,97457.44
2022-08-09T06:34:00.567Z,97460.97
2022-08-09T06:36:29.938Z,97465.53
2022-08-09T06:38:59.394Z,97464.16
2022-08-09T06:41:56.758Z,97466.84
2022-08-09T06:44:18.093Z,97450.19
2022-08-09T06:46:45.512Z,97470.31
2022-08-09T06:49:12.762Z,97463.75
2022-08-09T06:51:42.913Z,97458.16
2022-08-09T06:54:15.554Z,97455.13
2022-08-09T06:56:46.211Z,97468.22
2022-08-09T07:00:54.635Z,97463.47
2022-08-09T07:02:04.327Z,97474.59
2022-08-09T07:04:31.661Z,97471.84
2022-08-09T07:07:01.125Z,97469.06
2022-08-09T07:09:54.141Z,97471.38
2022-08-09T07:12:22.268Z,97470.44
2022-08-09T07:16:38.866Z,97464.00
2022-08-09T07:18:02.423Z,97468.28
2022-08-09T07:20:31.902Z,97474.09
2022-08-09T07:22:58.678Z,97468.38
2022-08-09T07:25:27.017Z,97476.59
2022-08-09T07:27:57.923Z,97473.72
2022-08-09T07:30:33.405Z,97474.13
2022-08-09T07:33:00.108Z,97470.03
2022-08-09T07:35:27.872Z,97467.63
2022-08-09T07:37:59.544Z,97465.03
2022-08-09T07:40:27.855Z,97459.50
2022-08-09T07:43:14.773Z,97480.94
2022-08-09T07:45:43.939Z,97468.50
2022-08-09T07:48:25.409Z,97476.50
2022-08-09T07:52:02.775Z,97457.88
2022-08-09T07:54:06.725Z,97459.06
2022-08-09T07:56:45.006Z,97469.19
2022-08-09T07:59:34.017Z,97469.81
2022-08-09T08:02:09.330Z,97455.47
2022-08-09T08:04:39.978Z,97453.59
2022-08-09T08:07:15.442Z,97459.03
2022-08-09T08:09:55.287Z,97462.06
2022-08-09T08:12:35.382Z,97455.69
2022-08-09T08:15:07.487Z,97464.03
2022-08-09T08:17:54.198Z,97469.78
2022-08-09T08:20:32.768Z,97472.44
2022-08-09T08:23:15.733Z,97462.53
2022-08-09T08:25:49.888Z,97456.13
2022-08-09T08:28:31.915Z,97450.06
2022-08-09T08:31:00.155Z,97467.50
2022-08-09T08:33:49.657Z,97464.72
2022-08-09T08:36:29.260Z,97465.44
2022-08-09T08:38:57.486Z,97472.25
2022-08-09T08:41:41.798Z,97466.50
2022-08-09T08:44:16.301Z,97463.69
2022-08-09T08:46:59.962Z,97473.56
2022-08-09T08:49:38.711Z,97469.75
2022-08-09T08:52:57.314Z,97473.53
2022-08-09T08:55:07.369Z,97480.09
2022-08-09T08:57:38.846Z,97482.41
2022-08-09T09:00:17.166Z,97479.84
2022-08-09T09:02:52.687Z,97477.56
2022-08-09T09:05:57.890Z,97481.31
2022-08-09T09:08:30.347Z,97484.66
2022-08-09T09:11:05.464Z,97478.75
2022-08-09T09:13:54.749Z,97485.38
2022-08-09T09:16:30.445Z,97469.16
2022-08-09T09:22:28.613Z,97476.78
2022-08-09T09:26:01.653Z,97475.47
2022-08-09T09:28:03.563Z,97474.72
2022-08-09T09:30:52.263Z,97471.69
2022-08-09T09:33:18.842Z,97469.81
2022-08-09T09:36:20.520Z,97473.63
2022-08-09T09:38:58.136Z,97477.00
2022-08-09T09:41:32.533Z,97473.53
2022-08-09T09:44:11.928Z,97471.78
2022-08-09T09:46:51.660Z,97477.69
2022-08-09T09:49:31.954Z,97456.16
2022-08-09T09:52:35.650Z,97460.53
2022-08-09T09:55:28.307Z,97469.97
2022-08-09T09:58:18.101Z,97469.56
2022-08-09T10:00:55.456Z,97468.63
2022-08-09T10:03:37.830Z,97461.63
2022-08-09T10:06:09.107Z,97477.06
2022-08-09T10:08:43.116Z,97468.19
2022-08-09T10:12:00.703Z,97474.31
2022-08-09T10:14:30.655Z,97486.38
2022-08-09T10:17:05.371Z,97478.84
2022-08-09T10:19:45.742Z,97476.47
2022-08-09T10:22:15.254Z,97485.84
2022-08-09T10:24:58.369Z,97481.91
2022-08-09T10:27:34.784Z,97474.44
2022-08-09T10:30:30.044Z,97484.88
2022-08-09T10:32:56.882Z,97471.25
2022-08-09T10:35:26.390Z,97463.94
2022-08-09T10:37:53.488Z,97462.72
2022-08-09T10:40:35.108Z,97455.78
2022-08-09T10:43:08.160Z,97461.25
2022-08-09T10:45:42.384Z,97452.25
2022-08-09T10:48:37.477Z,97454.69
2022-08-09T10:51:17.591Z,97458.22
2022-08-09T10:53:58.304Z,97461.91
2022-08-09T10:56:41.081Z,97460.63
2022-08-09T10:59:30.704Z,97456.19
2022-08-09T11:03:15.454Z,97451.84
2022-08-09T11:05:13.954Z,97446.06
2022-08-09T11:07:56.852Z,97453.09
2022-08-09T11:10:53.346Z,97458.63
2022-08-09T11:13:49.938Z,97448.88
2022-08-09T11:16:33.423Z,97454.84
2022-08-09T11:19:02.189Z,97449.03
2022-08-09T11:21:57.516Z,97458.63
2022-08-09T11:25:04.620Z,97449.50
2022-08-09T11:28:07.973Z,97445.72
2022-08-09T11:30:39.342Z,97445.28
2022-08-09T11:33:17.658Z,97460.03
2022-08-09T11:35:49.981Z,97441.31
2022-08-09T11:38:33.225Z,97444.28
2022-08-09T11:41:16.097Z,97438.69
2022-08-09T11:43:52.053Z,97439.75
2022-08-09T11:46:33.318Z,97438.84
2022-08-09T11:49:05.228Z,97445.19
2022-08-09T11:53:03.950Z,97443.91
2022-08-09T11:55:51.487Z,97451.16
2022-08-09T11:58:15.001Z,97432.72
2022-08-09T12:00:56.346Z,97428.66
2022-08-09T12:03:50.484Z,97440.34
2022-08-09T12:06:16.114Z,97431.06
2022-08-09T12:08:53.666Z,97431.06
2022-08-09T12:11:22.952Z,97417.50
2022-08-09T12:14:08.269Z,97403.50
2022-08-09T12:16:42.910Z,97427.22
2022-08-09T12:19:12.255Z,97418.50
2022-08-09T12:21:51.720Z,97422.22
2022-08-09T12:24:25.875Z,97411.81
2022-08-09T12:28:58.338Z,97415.19
2022-08-09T12:30:02.116Z,97418.44
2022-08-09T12:32:44.119Z,97422.00
2022-08-09T12:35:21.568Z,97431.91
2022-08-09T12:37:52.433Z,97418.25
2022-08-09T12:40:27.310Z,97428.75
2022-08-09T12:42:54.912Z,97416.63
2022-08-09T12:45:32.188Z,97412.97
2022-08-09T12:48:03.225Z,97433.22
2022-08-09T12:50:30.207Z,97415.75
2022-08-09T12:53:09.686Z,97421.13
2022-08-09T12:56:11.450Z,97420.91
2022-08-09T12:58:42.674Z,97401.03
2022-08-09T13:01:28.182Z,97400.38
2022-08-09T13:04:06.762Z,97407.75
2022-08-09T13:06:56.006Z,97397.91
2022-08-09T13:09:31.780Z,97409.91
2022-08-09T13:12:06.214Z,97403.09
2022-08-09T13:14:41.349Z,97413.34
2022-08-09T13:17:44.337Z,97394.84
2022-08-09T13:20:14.109Z,97398.19
2022-08-09T13:23:05.619Z,97396.88
2022-08-09T13:25:53.425Z,97368.06
2022-08-09T13:28:33.817Z,97391.84
2022-08-09T13:32:14.840Z,97397.88
2022-08-09T13:33:59.126Z,97395.16
2022-08-09T13:36:41.342Z,97397.84
2022-08-09T13:41:17.364Z,97387.50
2022-08-09T13:42:04.637Z,97395.44
2022-08-09T13:44:33.142Z,97390.69
2022-08-09T13:47:27.327Z,97397.41
2022-08-09T13:49:56.134Z,97384.06
2022-08-09T13:52:26.932Z,97381.59
2022-08-09T13:54:58.850Z,97390.00
2022-08-09T13:57:36.482Z,97376.88
2022-08-09T14:00:12.074Z,97388.59
2022-08-09T14:02:42.567Z,97392.81
2022-08-09T14:05:59.260Z,97385.91
2022-08-09T14:08:13.374Z,97386.22
2022-08-09T14:10:50.630Z,97374.91
2022-08-09T14:14:15.128Z,97384.16
2022-08-09T14:16:18.195Z,97380.28
2022-08-09T14:18:50.313Z,97372.47
2022-08-09T14:21:25.697Z,97383.09
2022-08-09T14:23:57.348Z,97376.78
2022-08-09T14:26:33.908Z,97378.81
2022-08-09T14:29:07.385Z,97375.03
2022-08-09T14:31:52.265Z,97370.41
2022-08-09T14:34:31.281Z,97367.78
2022-08-09T14:37:06.651Z,97364.69
2022-08-09T14:39:45.959Z,97367.50
2022-08-09T14:42:31.149Z,97369.00
2022-08-09T14:46:38.826Z,97373.97
2022-08-09T14:47:57.980Z,97367.19
2022-08-09T14:50:29.402Z,97376.56
2022-08-09T14:53:01.614Z,97385.03
2022-08-09T14:55:32.671Z,97378.44
2022-08-09T14:58:03.740Z,97372.97
2022-08-09T15:00:36.397Z,97358.84
2022-08-09T15:03:10.536Z,97367.72
2022-08-09T15:05:38.373Z,97374.50
2022-08-09T15:08:06.361Z,97364.53
2022-08-09T15:10:39.818Z,97360.88
2022-08-09T15:13:12.919Z,97366.69
2022-08-09T15:15:43.829Z,97373.91
2022-08-09T15:18:12.430Z,97366.63
2022-08-09T15:21:55.732Z,97367.16
2022-08-09T15:24:01.338Z,97364.25
2022-08-09T15:26:19.030Z,97372.03
2022-08-09T15:28:55.437Z,97349.41
2022-08-09T15:31:28.606Z,97369.31
2022-08-09T15:34:17.514Z,97365.22
2022-08-09T15:36:58.578Z,97359.84
2022-08-09T15:39:43.908Z,97357.66
2022-08-09T15:42:18.857Z,97362.72
2022-08-09T15:44:45.917Z,97353.69
2022-08-09T15:47:22.560Z,97352.66
2022-08-09T15:50:04.937Z,97345.63
2022-08-09T15:52:42.487Z,97354.00
2022-08-09T15:55:26.516Z,97345.41
2022-08-09T15:57:55.186Z,97345.81
2022-08-09T16:00:26.615Z,97340.59
2022-08-09T16:02:56.697Z,97333.78
2022-08-09T16:05:53.095Z,97332.81
2022-08-09T16:08:29.684Z,97336.03
2022-08-09T16:10:57.922Z,97332.03
2022-08-09T16:14:05.482Z,97327.38
2022-08-09T16:16:17.228Z,97316.00
2022-08-09T16:18:47.609Z,97320.78
2022-08-09T16:21:17.558Z,97327.94
2022-08-09T16:23:54.823Z,97330.28
2022-08-09T16:26:34.539Z,97315.91
2022-08-09T16:29:11.343Z,97319.84
2022-08-09T16:32:18.923Z,97323.88
2022-08-09T16:34:55.260Z,97326.06
2022-08-09T16:37:53.193Z,97313.22
2022-08-09T16:40:12.859Z,97328.06
2022-08-09T16:42:45.597Z,97315.16
2022-08-09T16:45:19.002Z,97317.53
2022-08-09T16:48:41.702Z,97325.25
2022-08-09T16:50:39.473Z,97312.09
2022-08-09T16:53:06.496Z,97326.47
2022-08-09T16:55:58.338Z,97318.47
2022-08-09T16:58:24.111Z,97313.78
2022-08-09T17:00:50.998Z,97315.13
2022-08-09T17:03:21.443Z,97326.16
2022-08-09T17:06:06.812Z,97317.69
2022-08-09T17:08:45.794Z,97324.94
2022-08-09T17:11:24.600Z,97330.00
2022-08-09T17:14:02.317Z,97326.44
2022-08-09T17:16:29.297Z,97318.97
2022-08-09T17:18:58.376Z,97334.69
2022-08-09T17:21:31.454Z,97324.50
2022-08-09T17:24:21.081Z,97319.38
2022-08-09T17:26:47.752Z,97318.53
2022-08-09T17:29:20.755Z,97324.16
2022-08-09T17:31:49.174Z,97330.72
2022-08-09T17:35:04.021Z,97321.41
2022-08-09T17:37:07.537Z,97337.06
2022-08-09T17:39:52.593Z,97331.31
2022-08-09T17:42:40.807Z,97342.13
2022-08-09T17:45:16.128Z,97338.16
2022-08-09T17:47:55.859Z,97331.16
2022-08-09T17:50:37.015Z,97334.78
2022-08-09T17:53:10.468Z,97330.09
2022-08-09T17:55:54.137Z,97340.53
2022-08-09T17:58:27.013Z,97349.44
2022-08-09T18:00:54.897Z,97345.47
2022-08-09T18:03:24.382Z,97351.22
2022-08-09T18:05:53.099Z,97343.97
2022-08-09T18:08:22.175Z,97360.94
2022-08-09T18:11:01.737Z,97358.72
2022-08-09T18:13:53.555Z,97351.69
2022-08-09T18:16:28.936Z,97361.31
2022-08-09T18:18:56.941Z,97359.81
2022-08-09T18:21:25.852Z,97362.34
2022-08-09T18:24:09.515Z,97360.59
2022-08-09T18:26:45.979Z,97354.81
2022-08-09T18:30:41.749Z,97367.69
2022-08-09T18:32:03.054Z,97360.63
2022-08-09T18:34:31.658Z,97367.97
2022-08-09T18:37:01.094Z,97362.94
2022-08-09T18:39:32.095Z,97375.06
2022-08-09T18:42:01.232Z,97375.81
2022-08-09T18:44:30.598Z,97366.97
2022-08-09T18:47:05.109Z,97368.22
2022-08-09T18:49:47.020Z,97373.75
2022-08-09T18:52:25.026Z,97375.28
2022-08-09T18:55:04.008Z,97376.03
2022-08-09T18:57:43.530Z,97385.38
2022-08-09T19:00:16.276Z,97382.84
2022-08-09T19:02:46.263Z,97387.34
2022-08-09T19:05:24.487Z,97393.41
2022-08-09T19:08:10.752Z,97393.41
2022-08-09T19:10:41.242Z,97391.56
2022-08-09T19:13:20.919Z,97399.13
2022-08-09T19:15:56.657Z,97393.78
2022-08-09T19:18:35.715Z,97389.50
2022-08-09T19:21:10.622Z,97392.53
2022-08-09T19:24:33.280Z,97393.25
2022-08-09T19:26:35.061Z,97401.53
2022-08-09T19:29:15.300Z,97406.56
2022-08-09T19:31:46.255Z,97401.53
2022-08-09T19:34:21.621Z,97402.50
2022-08-09T19:36:54.037Z,97409.50
2022-08-09T19:39:43.493Z,97397.88
2022-08-09T19:42:15.374Z,97395.13
2022-08-09T19:44:50.638Z,97403.19
2022-08-09T19:47:22.971Z,97394.72
2022-08-09T19:50:06.831Z,97402.75
2022-08-09T19:52:37.775Z,97397.00
2022-08-09T19:55:19.382Z,97404.06
2022-08-09T19:57:51.617Z,97398.09
2022-08-09T20:00:18.965Z,97413.78
2022-08-09T20:04:09.785Z,97414.34
2022-08-09T20:05:46.780Z,97413.22
2022-08-09T20:08:25.140Z,97417.00
2022-08-09T20:11:02.509Z,97414.84
2022-08-09T20:13:37.227Z,97400.56
2022-08-09T20:16:34.642Z,97409.13
2022-08-09T20:19:04.075Z,97413.31
2022-08-09T20:21:41.069Z,97408.31
2022-08-09T20:24:29.433Z,97396.91
2022-08-09T20:27:05.773Z,97421.81
2022-08-09T20:29:38.730Z,97419.31
2022-08-09T20:32:40.168Z,97413.03
2022-08-09T20:34:59.549Z,97417.31
2022-08-09T20:38:19.076Z,97421.38
2022-08-09T20:40:24.808Z,97411.00
2022-08-09T20:43:12.012Z,97421.50
2022-08-09T20:45:59.669Z,97406.91
2022-08-09T20:48:31.043Z,97409.69
2022-08-09T20:50:59.330Z,97416.63
2022-08-09T20:53:35.862Z,97410.50
2022-08-09T20:56:20.814Z,97423.16
2022-08-09T20:58:58.731Z,97418.47
2022-08-09T21:01:35.246Z,97416.81
2022-08-09T21:05:50.979Z,97425.88
2022-08-09T21:07:11.386Z,97427.06
2022-08-09T21:09:45.548Z,97421.81
2022-08-09T21:12:17.914Z,97415.91
2022-08-09T21:14:46.266Z,97420.13
2022-08-09T21:18:23.351Z,97418.34
2022-08-09T21:20:25.258Z,97413.38
2022-08-09T21:22:55.580Z,97411.03
2022-08-09T21:25:44.317Z,97418.72
2022-08-09T21:28:34.470Z,97415.53
2022-08-09T21:31:16.192Z,97420.66
2022-08-09T21:33:46.137Z,97419.34
2022-08-09T21:36:18.158Z,97413.59
2022-08-09T21:38:45.592Z,97417.19
2022-08-09T21:41:22.491Z,97415.09
2022-08-09T21:44:09.415Z,97413.03
2022-08-09T21:46:38.866Z,97404.41
2022-08-09T21:49:08.319Z,97415.47
2022-08-09T21:51:36.424Z,97407.38
2022-08-09T21:54:13.070Z,97409.09
2022-08-09T21:56:44.761Z,97417.63
2022-08-09T21:59:25.474Z,97410.34
2022-08-09T22:02:00.523Z,97407.25
2022-08-09T22:04:57.270Z,97408.47
2022-08-09T22:07:35.130Z,97400.88
2022-08-09T22:10:07.524Z,97401.88
2022-08-09T22:12:38.931Z,97396.38
2022-08-09T22:15:13.860Z,97401.63
2022-08-09T22:17:47.314Z,97398.31
2022-08-09T22:20:16.854Z,97403.25
2022-08-09T22:22:53.307Z,97400.88
2022-08-09T22:26:07.453Z,97403.25
2022-08-09T22:28:11.369Z,97398.31
2022-08-09T22:30:39.262Z,97392.72
2022-08-09T22:33:17.273Z,97398.91
2022-08-09T22:36:01.492Z,97397.88
2022-08-09T22:38:32.359Z,97393.22
2022-08-09T22:40:59.780Z,97394.28
2022-08-09T22:44:02.167Z,97385.91
2022-08-09T22:48:15.524Z,97379.59
2022-08-09T22:49:10.197Z,97380.94
2022-08-09T22:51:43.445Z,97382.75
2022-08-09T22:54:21.264Z,97383.34
2022-08-09T22:56:50.994Z,97382.88
2022-08-09T22:59:57.430Z,97373.63
2022-08-09T23:02:14.921Z,97375.75
2022-08-09T23:04:53.456Z,97373.75
2022-08-09T23:08:22.286Z,97386.03
2022-08-09T23:10:26.137Z,97381.75
2022-08-09T23:12:52.673Z,97380.13
2022-08-09T23:15:21.903Z,97376.34
2022-08-09T23:17:50.631Z,97381.38
2022-08-09T23:20:19.710Z,97371.00
2022-08-09T23:22:48.932Z,97371.41
2022-08-09T23:25:18.652Z,97370.63
2022-08-09T23:28:14.889Z,97370.53
2022-08-09T23:30:34.462Z,97370.25
2022-08-09T23:33:03.137Z,97377.94
2022-08-09T23:35:29.703Z,97340.97
2022-08-09T23:37:56.269Z,97373.88
2022-08-09T23:40:22.892Z,97367.78
2022-08-09T23:42:49.447Z,97364.06
2022-08-09T23:45:37.318Z,97363.03
2022-08-09T23:48:08.987Z,97370.63
2022-08-09T23:50:35.894Z,97364.28
2022-08-09T23:53:02.937Z,97365.81
2022-08-09T23:55:30.598Z,97373.69
2022-08-09T23:58:10.568Z,97362.38
